Time;durP1;ratioP1;P1;durP2;ratioP2;P2;SDS_P1;SDS_P2;PMS_P1;PMS_P2;Temp;Humidity;BMP_temperature;BMP_pressure;BME280_temperature;BME280_humidity;BME280_pressure;Samples;Min_cycle;Max_cycle;Signal;HPM_P1;HPM_P2
2021/10/02 00:44:57;;;;;;;5.25;4.05;;;15.50;99.90;;;;;;5011475;28;20044;-76
2021/10/02 00:47:26;;;;;;;4.63;3.75;;;15.50;99.90;;;;;;5011193;28;20400;-76
2021/10/02 00:49:55;;;;;;;4.45;3.38;;;15.40;99.90;;;;;;5011168;28;20018;-76
2021/10/02 00:52:21;;;;;;;3.97;3.65;;;15.40;99.90;;;;;;5011342;28;20140;-76
2021/10/02 00:54:48;;;;;;;5.93;3.60;;;15.40;99.90;;;;;;5011286;28;20495;-76
2021/10/02 00:57:14;;;;;;;6.82;4.28;;;15.40;99.90;;;;;;5011180;28;20168;-76
2021/10/02 00:59:41;;;;;;;5.28;3.75;;;15.40;99.90;;;;;;5011318;28;20026;-76
2021/10/02 01:02:09;;;;;;;5.13;3.67;;;15.40;99.90;;;;;;5026353;28;20488;-76
2021/10/02 01:04:50;;;;;;;5.63;4.40;;;15.40;99.90;;;;;;5011095;28;20065;-76
2021/10/02 01:07:35;;;;;;;5.22;4.38;;;15.50;99.90;;;;;;5011150;28;20392;-76
2021/10/02 01:10:22;;;;;;;4.57;3.97;;;15.50;99.90;;;;;;5009877;28;20039;-76
2021/10/02 01:13:11;;;;;;;4.03;3.67;;;15.40;99.90;;;;;;5011088;28;20056;-76
2021/10/02 01:16:01;;;;;;;7.00;3.85;;;15.50;99.90;;;;;;5013984;28;20084;-77
2021/10/02 01:18:28;;;;;;;4.82;4.32;;;15.50;99.90;;;;;;5014590;28;20029;-76
2021/10/02 01:21:13;;;;;;;8.65;4.38;;;15.40;99.90;;;;;;5014661;28;20108;-76
2021/10/02 01:23:57;;;;;;;5.15;4.30;;;15.40;99.90;;;;;;5014469;28;20026;-76
2021/10/02 01:26:44;;;;;;;5.15;4.50;;;15.40;99.90;;;;;;5014474;28;20030;-76
2021/10/02 01:29:12;;;;;;;6.68;4.40;;;15.40;99.90;;;;;;5014483;28;20030;-76
2021/10/02 01:31:46;;;;;;;8.55;4.57;;;15.40;99.90;;;;;;5014449;28;20030;-77
2021/10/02 01:34:24;;;;;;;7.47;5.30;;;15.40;99.90;;;;;;5014383;28;20425;-77
2021/10/02 01:37:06;;;;;;;4.15;3.72;;;15.30;99.90;;;;;;5014290;28;20034;-77
2021/10/02 01:47:54;;;;;;;5.97;4.68;;;15.20;99.90;;;;;;4994454;28;20118;-76
2021/10/02 01:50:31;;;;;;;5.47;4.43;;;15.20;99.90;;;;;;4994315;28;20030;-76
2021/10/02 01:53:01;;;;;;;4.68;3.67;;;15.20;99.90;;;;;;4993230;28;20022;-76
2021/10/02 01:55:28;;;;;;;5.28;4.15;;;15.20;99.90;;;;;;4994314;28;20436;-76
2021/10/02 01:58:01;;;;;;;6.80;4.57;;;15.20;99.90;;;;;;5004267;28;20044;-76
2021/10/02 02:00:28;;;;;;;6.15;4.53;;;15.20;99.90;;;;;;5013781;28;20026;-76
2021/10/02 02:02:57;;;;;;;7.63;4.68;;;15.20;99.90;;;;;;5013931;28;20030;-76
2021/10/02 02:05:27;;;;;;;5.32;4.22;;;15.20;99.90;;;;;;5013726;28;20105;-76
2021/10/02 02:07:57;;;;;;;7.85;5.00;;;15.10;99.90;;;;;;5013711;28;20029;-76
2021/10/02 02:10:25;;;;;;;4.95;4.45;;;15.10;99.90;;;;;;5013530;28;20040;-76
2021/10/02 02:12:53;;;;;;;7.20;4.97;;;15.20;99.90;;;;;;5013482;28;20053;-76
2021/10/02 02:15:21;;;;;;;4.75;4.25;;;15.20;99.90;;;;;;5013446;28;20050;-76
2021/10/02 02:17:52;;;;;;;5.35;4.75;;;15.20;99.90;;;;;;5013729;28;20022;-76
2021/10/02 02:20:42;;;;;;;6.18;4.65;;;15.20;99.90;;;;;;5013553;28;20033;-76
2021/10/02 02:23:12;;;;;;;4.97;4.40;;;15.20;99.90;;;;;;5013506;28;20022;-76
2021/10/02 02:25:39;;;;;;;4.55;4.10;;;15.30;99.90;;;;;;5012339;28;20503;-76
2021/10/02 02:28:07;;;;;;;9.60;4.88;;;15.30;99.90;;;;;;5012147;28;20053;-76
2021/10/02 02:30:34;;;;;;;4.25;3.88;;;15.30;99.90;;;;;;5013340;28;20036;-76
2021/10/02 02:33:00;;;;;;;6.72;3.95;;;15.40;99.90;;;;;;5013277;28;20018;-76
2021/10/02 02:35:27;;;;;;;7.03;3.90;;;15.40;99.90;;;;;;5013137;28;20503;-76
2021/10/02 02:37:53;;;;;;;8.27;4.18;;;15.40;99.90;;;;;;5013217;28;20184;-76
2021/10/02 02:40:20;;;;;;;4.22;3.83;;;15.40;99.90;;;;;;5013194;28;20048;-76
2021/10/02 02:42:46;;;;;;;4.32;3.65;;;15.40;99.90;;;;;;5013019;28;20100;-76
2021/10/02 02:45:14;;;;;;;9.60;4.90;;;15.40;99.90;;;;;;5012982;28;20045;-76
2021/10/02 02:47:47;;;;;;;4.32;3.92;;;15.40;99.90;;;;;;5011853;28;20391;-76
2021/10/02 02:50:28;;;;;;;6.10;3.63;;;15.40;99.90;;;;;;5012977;28;20024;-76
2021/10/02 02:53:25;;;;;;;4.68;4.00;;;15.40;99.90;;;;;;5012875;28;20025;-76
2021/10/02 02:56:06;;;;;;;5.20;3.90;;;15.30;99.90;;;;;;4999704;28;20038;-76
2021/10/02 02:58:33;;;;;;;4.37;3.97;;;15.40;99.90;;;;;;5012909;28;20104;-76
2021/10/02 03:01:01;;;;;;;4.50;4.13;;;15.30;99.90;;;;;;5012836;28;20245;-76
2021/10/02 03:03:32;;;;;;;4.57;3.90;;;15.30;99.90;;;;;;5011491;28;20022;-76
2021/10/02 03:06:03;;;;;;;4.93;3.85;;;15.30;99.90;;;;;;5012672;28;20036;-77
2021/10/02 03:08:34;;;;;;;4.75;3.50;;;15.30;99.90;;;;;;5012571;28;20539;-76
2021/10/02 03:11:02;;;;;;;5.63;3.83;;;15.30;99.90;;;;;;5012604;28;20029;-76
2021/10/02 03:13:31;;;;;;;5.10;3.92;;;15.30;99.90;;;;;;5012475;28;20010;-76
2021/10/02 03:15:57;;;;;;;4.50;3.13;;;15.30;99.90;;;;;;5012324;28;20059;-76
2021/10/02 03:18:25;;;;;;;4.72;3.13;;;15.20;99.90;;;;;;5027692;28;20114;-76
2021/10/02 03:20:57;;;;;;;4.05;3.58;;;15.30;99.90;;;;;;5027516;28;20037;-76
2021/10/02 03:23:26;;;;;;;5.90;3.30;;;15.30;99.90;;;;;;5027523;28;20021;-76
2021/10/02 03:25:53;;;;;;;5.25;3.45;;;15.20;99.90;;;;;;5012168;28;20111;-76
2021/10/02 03:28:19;;;;;;;3.15;2.95;;;15.20;99.90;;;;;;5027899;28;20024;-76
2021/10/02 03:30:44;;;;;;;4.30;3.25;;;15.20;99.90;;;;;;5013886;28;20029;-76
2021/10/02 03:33:12;;;;;;;4.45;3.50;;;15.20;99.90;;;;;;5013903;28;20018;-76
2021/10/02 03:35:38;;;;;;;3.80;3.50;;;15.20;99.90;;;;;;5011706;28;20026;-76
2021/10/02 03:38:04;;;;;;;3.47;2.38;;;15.20;99.90;;;;;;5029151;28;20068;-76
2021/10/02 03:40:32;;;;;;;3.70;3.40;;;15.20;99.90;;;;;;5013744;28;20109;-76
2021/10/02 03:42:58;;;;;;;4.70;3.60;;;15.10;99.90;;;;;;5013819;28;20506;-77
2021/10/02 03:45:26;;;;;;;5.78;3.35;;;15.10;99.90;;;;;;5013601;28;20064;-76
2021/10/02 03:47:51;;;;;;;5.13;3.67;;;15.10;99.90;;;;;;5028570;28;20029;-76
2021/10/02 03:50:18;;;;;;;4.07;3.35;;;15.10;99.90;;;;;;5013653;28;20030;-76
2021/10/02 03:52:43;;;;;;;4.72;3.80;;;15.10;99.90;;;;;;5013627;28;20125;-76
2021/10/02 03:55:12;;;;;;;6.97;3.40;;;15.00;99.90;;;;;;5028704;28;20396;-77
2021/10/02 03:57:39;;;;;;;6.90;3.25;;;15.10;99.90;;;;;;5013507;28;20091;-76
2021/10/02 04:00:07;;;;;;;3.95;3.65;;;15.10;99.90;;;;;;5013499;28;20030;-76
2021/10/02 04:02:32;;;;;;;5.07;3.58;;;15.10;99.90;;;;;;5013554;28;20488;-76
2021/10/02 04:05:00;;;;;;;5.50;3.45;;;15.00;99.90;;;;;;5013183;28;20065;-76
2021/10/02 04:07:25;;;;;;;4.07;3.58;;;15.10;99.90;;;;;;5012855;28;20034;-76
2021/10/02 04:09:51;;;;;;;3.55;3.25;;;15.00;99.90;;;;;;5027949;28;20057;-76
2021/10/02 04:12:17;;;;;;;5.40;3.60;;;15.00;99.90;;;;;;5012624;28;20034;-76
2021/10/02 04:14:42;;;;;;;3.95;3.17;;;15.00;99.90;;;;;;5012778;28;20531;-76
2021/10/02 04:17:08;;;;;;;3.45;3.20;;;15.00;99.90;;;;;;5012598;28;20080;-76
2021/10/02 04:19:34;;;;;;;3.72;3.30;;;15.00;99.90;;;;;;5012597;28;20034;-76
2021/10/02 04:22:00;;;;;;;4.30;3.38;;;15.00;99.90;;;;;;5012924;28;20113;-76
2021/10/02 04:24:28;;;;;;;3.90;3.60;;;15.00;99.90;;;;;;5012964;28;20025;-76
2021/10/02 04:26:55;;;;;;;5.63;3.90;;;15.00;99.90;;;;;;5027536;28;20026;-76
2021/10/02 04:29:21;;;;;;;3.65;3.35;;;15.00;99.90;;;;;;5027009;28;20026;-77
2021/10/02 04:31:46;;;;;;;4.65;3.45;;;15.00;99.90;;;;;;5012278;28;20022;-76
2021/10/02 04:34:12;;;;;;;4.32;3.55;;;15.00;99.90;;;;;;5011727;28;20029;-76
2021/10/02 04:36:38;;;;;;;6.60;3.50;;;15.00;99.90;;;;;;5012047;28;20048;-76
2021/10/02 04:39:03;;;;;;;4.38;3.65;;;15.00;99.90;;;;;;5011912;28;20539;-76
2021/10/02 04:41:29;;;;;;;6.82;3.33;;;15.00;99.90;;;;;;5012117;28;20034;-76
2021/10/02 04:43:55;;;;;;;4.25;3.85;;;15.00;99.90;;;;;;5010477;28;20065;-77
2021/10/02 04:46:21;;;;;;;5.80;3.78;;;15.00;99.90;;;;;;5011729;28;20395;-76
2021/10/02 04:48:47;;;;;;;6.72;3.40;;;15.00;99.90;;;;;;5011953;28;20518;-76
2021/10/02 04:51:14;;;;;;;4.22;3.85;;;15.00;99.90;;;;;;5015450;28;20029;-76
2021/10/02 04:53:40;;;;;;;4.55;3.70;;;15.00;99.90;;;;;;5016242;28;20117;-76
2021/10/02 04:56:09;;;;;;;5.72;3.78;;;15.00;99.90;;;;;;5015972;28;20105;-76
2021/10/02 04:58:36;;;;;;;3.65;3.35;;;15.00;99.90;;;;;;5015838;28;20080;-76
2021/10/02 05:01:03;;;;;;;4.75;3.80;;;15.00;99.90;;;;;;5015676;28;20026;-76
2021/10/02 05:03:29;;;;;;;5.03;3.58;;;15.00;99.90;;;;;;5015517;28;20125;-76
2021/10/02 05:05:55;;;;;;;5.05;3.72;;;15.00;99.90;;;;;;5010481;28;20033;-76
2021/10/02 05:08:20;;;;;;;5.97;3.88;;;15.00;99.90;;;;;;5003334;28;20023;-76
2021/10/02 05:10:46;;;;;;;4.30;2.92;;;15.00;99.90;;;;;;5005785;28;20037;-76
2021/10/02 05:13:13;;;;;;;4.38;3.58;;;15.00;99.90;;;;;;5019720;28;20076;-76
2021/10/02 05:15:40;;;;;;;4.82;3.30;;;15.00;99.90;;;;;;5005875;28;20045;-76
2021/10/02 05:18:06;;;;;;;3.88;3.53;;;15.10;99.90;;;;;;5003877;28;20061;-76
2021/10/02 05:20:32;;;;;;;8.05;3.22;;;15.10;99.90;;;;;;5014781;28;20057;-76
2021/10/02 05:22:58;;;;;;;3.28;2.97;;;15.00;99.90;;;;;;5019827;28;20035;-76
2021/10/02 05:25:24;;;;;;;4.97;3.42;;;15.00;99.90;;;;;;4995142;28;20022;-76
2021/10/02 05:27:50;;;;;;;5.45;3.30;;;14.90;99.90;;;;;;4994762;28;20105;-76
2021/10/02 05:30:16;;;;;;;4.00;3.17;;;14.90;99.90;;;;;;4994385;28;20101;-76
2021/10/02 05:32:42;;;;;;;4.72;3.30;;;15.00;99.90;;;;;;4998701;28;20552;-76
2021/10/02 05:35:08;;;;;;;3.42;3.08;;;15.00;99.90;;;;;;5005739;28;20010;-77
2021/10/02 05:37:35;;;;;;;3.35;2.95;;;15.00;99.90;;;;;;5004561;28;20105;-76
2021/10/02 05:40:01;;;;;;;5.63;3.38;;;15.00;99.90;;;;;;5000700;28;20052;-77
2021/10/02 05:42:27;;;;;;;4.07;3.20;;;14.90;99.90;;;;;;5013525;28;20026;-77
2021/10/02 05:44:53;;;;;;;3.25;3.05;;;14.90;99.90;;;;;;5029654;28;20041;-76
2021/10/02 05:47:19;;;;;;;3.70;3.40;;;14.80;99.90;;;;;;5015081;28;20033;-76
2021/10/02 05:49:45;;;;;;;6.18;3.30;;;14.90;99.90;;;;;;5014072;28;20030;-77
2021/10/02 05:52:12;;;;;;;3.58;2.95;;;14.90;99.90;;;;;;5014198;28;20416;-76
2021/10/02 05:54:38;;;;;;;3.58;3.25;;;14.90;99.90;;;;;;5014236;28;20076;-76
2021/10/02 05:57:04;;;;;;;4.70;3.50;;;14.90;99.90;;;;;;5014052;28;20083;-76
2021/10/02 05:59:30;;;;;;;6.78;3.70;;;14.90;99.90;;;;;;5014449;28;20030;-77
2021/10/02 06:01:56;;;;;;;4.32;3.40;;;14.90;99.90;;;;;;5013521;28;20029;-76
2021/10/02 06:04:22;;;;;;;4.88;3.45;;;14.90;99.90;;;;;;5013875;28;20029;-76
2021/10/02 06:06:47;;;;;;;6.40;4.55;;;14.90;99.90;;;;;;5013747;28;20022;-76
2021/10/02 06:09:13;;;;;;;3.60;3.30;;;15.00;99.90;;;;;;5014034;28;20391;-77
2021/10/02 06:11:39;;;;;;;3.45;3.10;;;15.00;99.90;;;;;;5013605;28;20062;-76
2021/10/02 06:14:05;;;;;;;5.53;3.45;;;15.00;99.90;;;;;;5002062;28;20037;-76
2021/10/02 06:16:32;;;;;;;7.75;4.45;;;15.00;99.90;;;;;;5006227;28;20122;-76
2021/10/02 06:18:57;;;;;;;6.00;3.40;;;15.00;99.90;;;;;;5002945;28;20034;-76
2021/10/02 06:21:23;;;;;;;4.40;3.70;;;15.10;99.90;;;;;;5002468;28;20022;-77
2021/10/02 06:23:49;;;;;;;4.32;3.75;;;15.10;99.90;;;;;;5005103;28;20060;-76
2021/10/02 06:26:15;;;;;;;4.93;3.40;;;15.10;99.90;;;;;;5010528;28;20034;-76
2021/10/02 06:28:40;;;;;;;4.78;3.90;;;15.20;99.90;;;;;;5014348;28;20049;-76
2021/10/02 06:31:06;;;;;;;5.20;3.55;;;15.20;99.90;;;;;;5014394;28;20026;-76
2021/10/02 06:33:33;;;;;;;5.10;3.70;;;15.30;99.90;;;;;;5014270;28;20033;-76
2021/10/02 06:35:58;;;;;;;5.45;3.50;;;15.30;99.90;;;;;;5014294;28;20018;-76
2021/10/02 06:38:24;;;;;;;2.40;2.20;;;15.30;99.90;;;;;;5014475;28;20026;-77
2021/10/02 06:40:50;;;;;;;3.47;3.25;;;15.60;99.90;;;;;;5012565;28;20076;-77
2021/10/02 06:43:16;;;;;;;3.40;3.10;;;15.70;99.90;;;;;;5003774;28;20084;-77
2021/10/02 06:45:43;;;;;;;5.35;3.47;;;15.60;99.90;;;;;;4994705;28;20365;-77
2021/10/02 06:48:09;;;;;;;5.47;3.70;;;15.60;99.90;;;;;;4995834;28;20034;-77
2021/10/02 06:50:35;;;;;;;4.50;3.70;;;15.60;99.90;;;;;;5013779;28;20050;-77
2021/10/02 06:53:01;;;;;;;4.53;3.80;;;15.60;99.90;;;;;;5001576;28;20026;-77
2021/10/02 06:55:28;;;;;;;4.47;3.47;;;15.60;99.90;;;;;;5006278;28;20053;-77
2021/10/02 06:57:53;;;;;;;7.70;3.92;;;15.70;99.90;;;;;;5013799;28;20101;-77
2021/10/02 07:00:19;;;;;;;7.43;3.65;;;15.70;99.90;;;;;;5013640;28;20187;-77
2021/10/02 07:02:46;;;;;;;5.32;3.78;;;15.70;99.90;;;;;;5013808;28;20408;-77
2021/10/02 07:05:16;;;;;;;6.00;3.63;;;15.80;99.90;;;;;;5006940;28;20022;-76
2021/10/02 07:07:42;;;;;;;8.20;3.78;;;15.80;99.90;;;;;;5013708;28;20113;-77
2021/10/02 07:10:09;;;;;;;3.90;3.33;;;15.90;99.90;;;;;;5013102;28;20108;-77
2021/10/02 07:12:36;;;;;;;5.00;3.55;;;15.90;99.90;;;;;;5011736;28;20161;-77
2021/10/02 07:15:03;;;;;;;6.50;3.25;;;16.00;99.90;;;;;;5012955;28;20049;-77
2021/10/02 07:17:29;;;;;;;7.63;3.75;;;16.00;99.90;;;;;;5011850;28;20075;-77
2021/10/02 07:19:54;;;;;;;5.18;3.50;;;16.10;99.90;;;;;;5012743;28;20030;-77
2021/10/02 07:22:20;;;;;;;4.88;3.42;;;16.20;99.90;;;;;;5013567;28;20108;-77
2021/10/02 07:24:46;;;;;;;5.47;3.13;;;16.20;99.90;;;;;;5013187;28;20043;-76
2021/10/02 07:27:12;;;;;;;6.00;3.88;;;16.30;99.90;;;;;;5013182;28;20499;-76
2021/10/02 07:29:38;;;;;;;4.35;3.50;;;16.30;99.90;;;;;;5012438;28;20034;-77
2021/10/02 07:32:04;;;;;;;6.53;3.70;;;16.40;99.90;;;;;;5013018;28;20021;-77
2021/10/02 07:34:29;;;;;;;5.88;4.03;;;16.50;99.90;;;;;;5011039;28;20026;-76
2021/10/02 07:36:55;;;;;;;5.10;3.63;;;16.50;99.90;;;;;;5012287;28;20030;-77
2021/10/02 07:39:21;;;;;;;7.63;4.03;;;16.60;99.90;;;;;;5013104;28;20036;-77
2021/10/02 07:41:48;;;;;;;4.22;3.70;;;16.60;99.90;;;;;;5013286;28;20051;-76
2021/10/02 07:44:20;;;;;;;6.68;3.75;;;16.70;99.90;;;;;;5024936;28;20448;-75
2021/10/02 07:46:51;;;;;;;4.75;3.63;;;16.70;99.90;;;;;;5006654;28;20030;-75
2021/10/02 07:49:19;;;;;;;4.60;3.90;;;16.70;99.90;;;;;;5008762;28;20026;-75
2021/10/02 07:51:46;;;;;;;4.82;3.47;;;16.70;99.90;;;;;;5024529;28;20026;-75
2021/10/02 07:54:14;;;;;;;3.88;3.47;;;16.80;99.90;;;;;;5012493;28;20036;-76
2021/10/02 07:56:42;;;;;;;10.25;3.28;;;16.90;99.90;;;;;;5012808;28;20033;-76
2021/10/02 07:59:08;;;;;;;3.88;3.03;;;16.90;99.90;;;;;;5013277;28;20105;-79
2021/10/02 08:01:34;;;;;;;4.55;3.40;;;16.90;99.90;;;;;;5013371;28;20030;-79
2021/10/02 08:04:04;;;;;;;6.60;3.78;;;17.00;99.90;;;;;;5013555;28;20026;-79
2021/10/02 08:06:34;;;;;;;4.20;3.80;;;17.00;99.90;;;;;;5028689;28;20034;-79
2021/10/02 08:09:00;;;;;;;3.85;3.45;;;17.10;99.90;;;;;;5011679;28;20060;-76
2021/10/02 08:11:28;;;;;;;5.30;3.15;;;17.20;99.90;;;;;;5011669;28;20075;-77
2021/10/02 08:13:54;;;;;;;5.20;3.25;;;17.20;99.90;;;;;;5026776;28;20384;-76
2021/10/02 08:16:23;;;;;;;4.97;3.10;;;17.20;99.90;;;;;;5011547;28;20038;-77
2021/10/02 08:18:50;;;;;;;5.32;3.13;;;17.30;99.90;;;;;;5011659;28;20419;-76
2021/10/02 08:21:16;;;;;;;5.35;3.28;;;17.30;99.90;;;;;;5025920;28;20384;-77
2021/10/02 08:23:42;;;;;;;4.65;3.28;;;17.40;99.90;;;;;;5007827;28;20030;-75
2021/10/02 08:26:14;;;;;;;5.15;2.60;;;17.50;99.90;;;;;;5010056;28;20029;-76
2021/10/02 08:28:45;;;;;;;3.20;2.78;;;17.50;99.90;;;;;;5001645;28;20496;-76
2021/10/02 08:31:14;;;;;;;5.78;3.55;;;17.60;99.90;;;;;;5008271;28;20348;-75
2021/10/02 08:33:40;;;;;;;5.55;2.78;;;17.70;99.90;;;;;;5005632;28;20029;-76
2021/10/02 08:36:06;;;;;;;3.75;2.90;;;17.80;99.90;;;;;;5009569;28;20098;-75
2021/10/02 08:38:31;;;;;;;3.55;2.53;;;17.80;99.90;;;;;;5010902;28;20034;-75
2021/10/02 08:40:59;;;;;;;6.43;3.42;;;17.80;99.90;;;;;;5014404;28;20080;-76
2021/10/02 08:43:25;;;;;;;3.85;2.67;;;17.80;99.90;;;;;;5015392;28;20033;-74
2021/10/02 08:45:52;;;;;;;3.60;3.35;;;17.80;99.90;;;;;;5015135;28;20054;-75
2021/10/02 08:48:18;;;;;;;3.90;3.60;;;18.00;99.90;;;;;;5015339;28;20075;-75
2021/10/02 08:50:47;;;;;;;2.45;1.83;;;18.00;99.90;;;;;;5014947;28;20032;-75
2021/10/02 08:53:13;;;;;;;2.42;2.17;;;18.10;99.90;;;;;;5015206;28;20044;-75
2021/10/02 08:55:41;;;;;;;15.27;5.15;;;18.20;99.90;;;;;;5015039;28;20056;-74
2021/10/02 08:58:07;;;;;;;5.85;3.83;;;18.20;99.90;;;;;;5015103;28;20118;-75
2021/10/02 09:00:33;;;;;;;6.97;3.33;;;18.30;99.90;;;;;;5015131;28;20104;-75
2021/10/02 09:02:59;;;;;;;10.32;3.63;;;18.30;99.90;;;;;;5015005;28;20026;-74
2021/10/02 09:05:27;;;;;;;4.10;3.15;;;18.30;99.90;;;;;;5013570;28;20029;-74
2021/10/02 09:07:57;;;;;;;3.83;3.13;;;18.30;99.90;;;;;;5013492;28;20030;-75
2021/10/02 09:10:24;;;;;;;4.32;2.88;;;18.40;99.90;;;;;;5014793;28;20510;-74
2021/10/02 09:12:50;;;;;;;5.30;2.80;;;18.40;99.90;;;;;;5014811;28;20034;-74
2021/10/02 09:15:17;;;;;;;7.50;3.65;;;18.40;99.90;;;;;;5014461;28;20076;-75
2021/10/02 09:17:44;;;;;;;6.38;3.45;;;18.40;99.90;;;;;;5014957;28;20021;-74
2021/10/02 09:20:12;;;;;;;6.28;3.75;;;18.40;99.90;;;;;;5014558;28;20033;-74
2021/10/02 09:22:38;;;;;;;3.72;3.35;;;18.50;99.90;;;;;;5013346;28;20030;-74
2021/10/02 09:25:09;;;;;;;4.30;3.78;;;18.50;99.90;;;;;;5014424;28;20060;-75
2021/10/02 09:27:36;;;;;;;10.05;4.28;;;18.60;99.90;;;;;;5013158;28;20041;-74
2021/10/02 09:30:02;;;;;;;5.57;3.72;;;18.50;99.90;;;;;;5013158;28;20109;-74
2021/10/02 09:32:31;;;;;;;5.15;3.97;;;18.60;99.90;;;;;;5013820;28;20101;-75
2021/10/02 09:35:07;;;;;;;6.22;4.40;;;18.60;99.90;;;;;;5013949;28;20014;-74
2021/10/02 09:37:36;;;;;;;7.55;4.18;;;18.60;99.90;;;;;;5009741;28;20026;-75
2021/10/02 09:40:23;;;;;;;7.28;3.95;;;18.70;99.90;;;;;;4994790;28;20018;-75
2021/10/02 09:42:52;;;;;;;12.75;3.97;;;18.70;99.90;;;;;;4994649;28;20070;-75
2021/10/02 09:45:22;;;;;;;9.75;4.50;;;18.70;99.90;;;;;;4994623;28;20480;-74
2021/10/02 09:48:00;;;;;;;5.32;4.35;;;18.80;99.90;;;;;;4994737;28;20026;-75
2021/10/02 09:50:32;;;;;;;5.68;4.18;;;18.80;99.90;;;;;;4994551;28;20081;-75
2021/10/02 09:53:09;;;;;;;10.95;4.25;;;18.90;99.90;;;;;;4994504;28;20484;-74
2021/10/02 09:55:41;;;;;;;8.68;4.15;;;18.90;99.90;;;;;;4994411;28;20033;-74
2021/10/02 09:58:09;;;;;;;6.80;4.72;;;18.90;99.90;;;;;;4994450;28;20469;-74
2021/10/02 10:00:40;;;;;;;9.13;4.97;;;19.00;99.90;;;;;;4994301;28;20027;-72
2021/10/02 10:03:10;;;;;;;5.38;4.80;;;19.00;99.90;;;;;;4995093;28;20046;-78
2021/10/02 10:05:45;;;;;;;6.88;5.13;;;19.10;99.90;;;;;;5013841;28;20557;-80
2021/10/02 10:08:22;;;;;;;9.52;5.18;;;19.10;99.90;;;;;;5013962;28;20117;-79
2021/10/02 10:10:48;;;;;;;4.65;4.25;;;19.20;99.80;;;;;;5013884;28;20570;-78
2021/10/02 10:13:19;;;;;;;5.22;4.75;;;19.20;99.90;;;;;;5013676;28;20050;-78
2021/10/02 10:15:47;;;;;;;9.52;6.07;;;19.20;99.90;;;;;;5013508;28;20041;-77
2021/10/02 10:18:28;;;;;;;7.97;5.78;;;19.30;99.80;;;;;;5013727;28;20022;-79
2021/10/02 10:20:57;;;;;;;5.63;5.07;;;19.30;99.60;;;;;;5028899;28;20373;-78
2021/10/02 10:23:37;;;;;;;8.18;4.40;;;19.30;99.90;;;;;;5013656;28;20026;-77
2021/10/02 10:26:07;;;;;;;7.05;4.82;;;19.30;99.90;;;;;;5012806;28;20427;-78
2021/10/02 10:28:38;;;;;;;8.23;5.53;;;19.40;99.90;;;;;;5012181;28;20037;-77
2021/10/02 10:31:18;;;;;;;6.82;5.90;;;19.50;99.90;;;;;;5012244;28;20048;-77
2021/10/02 10:33:57;;;;;;;8.05;5.78;;;19.50;99.10;;;;;;5013437;28;20014;-77
2021/10/02 10:36:26;;;;;;;5.53;5.03;;;19.40;98.90;;;;;;5013269;28;20034;-77
2021/10/02 10:38:51;;;;;;;5.80;5.13;;;19.40;99.90;;;;;;5013279;28;20029;-77
2021/10/02 10:41:19;;;;;;;7.63;6.43;;;19.50;99.90;;;;;;5013178;28;20026;-77
2021/10/02 10:43:46;;;;;;;9.65;6.03;;;19.50;99.90;;;;;;5013389;28;20030;-77
2021/10/02 10:46:15;;;;;;;6.95;5.20;;;19.60;99.30;;;;;;5011334;28;20331;-77
2021/10/02 10:48:42;;;;;;;8.40;6.60;;;19.50;99.90;;;;;;5012798;28;20025;-77
2021/10/02 10:51:10;;;;;;;6.60;5.43;;;19.60;99.50;;;;;;5012982;28;20384;-77
2021/10/02 10:53:45;;;;;;;6.20;5.10;;;19.60;99.60;;;;;;5012960;28;20041;-78
2021/10/02 10:56:13;;;;;;;7.72;5.25;;;19.70;99.90;;;;;;5012769;28;20080;-77
2021/10/02 10:58:40;;;;;;;7.40;5.63;;;19.70;99.90;;;;;;5013078;28;20125;-77
2021/10/02 11:01:09;;;;;;;15.55;5.97;;;19.80;99.90;;;;;;5011444;28;20076;-77
2021/10/02 11:03:35;;;;;;;9.98;7.00;;;19.80;99.60;;;;;;5012789;28;20030;-77
2021/10/02 11:06:02;;;;;;;6.75;5.97;;;19.80;98.90;;;;;;5012600;28;20030;-77
2021/10/02 11:09:06;;;;;;;8.77;5.43;;;19.90;99.40;;;;;;5012606;28;20049;-77
2021/10/02 11:11:44;;;;;;;7.03;5.70;;;19.90;99.70;;;;;;5012684;28;20021;-77
2021/10/02 11:14:11;;;;;;;8.50;5.78;;;20.00;99.40;;;;;;5012643;28;20053;-77
2021/10/02 11:16:42;;;;;;;6.13;5.53;;;19.90;99.40;;;;;;5012664;28;20022;-77
2021/10/02 11:19:26;;;;;;;9.52;5.60;;;19.90;99.30;;;;;;5012639;28;20080;-77
2021/10/02 11:22:37;;;;;;;7.70;6.07;;;19.90;99.30;;;;;;5012369;28;20033;-77
2021/10/02 11:25:19;;;;;;;7.43;5.22;;;20.00;98.20;;;;;;5010910;28;20465;-78
2021/10/02 11:27:45;;;;;;;8.25;5.60;;;20.00;98.50;;;;;;5012505;28;20068;-77
2021/10/02 11:30:12;;;;;;;8.02;4.70;;;20.10;99.20;;;;;;5012220;28;20080;-77
2021/10/02 11:32:38;;;;;;;8.40;5.28;;;20.10;98.80;;;;;;5012505;28;20094;-77
2021/10/02 11:35:31;;;;;;;10.40;4.55;;;20.20;99.80;;;;;;5012034;28;20447;-77
2021/10/02 11:38:02;;;;;;;;;;;20.10;99.40;;;;;;5012557;28;20563;-77
2021/10/02 11:40:39;;;;;;;6.30;5.18;;;20.10;98.80;;;;;;5027428;28;19992;-77
2021/10/02 11:43:18;;;;;;;5.40;4.63;;;20.10;97.50;;;;;;5013810;28;20018;-77
2021/10/02 11:45:46;;;;;;;9.07;5.32;;;20.20;98.50;;;;;;5013396;28;20037;-77
2021/10/02 11:48:21;;;;;;;8.18;5.30;;;20.20;97.70;;;;;;5013838;28;20431;-77
2021/10/02 11:51:12;;;;;;;5.47;4.53;;;20.20;97.40;;;;;;5013616;28;20104;-77
2021/10/02 11:53:49;;;;;;;6.87;5.03;;;20.30;97.90;;;;;;5013611;28;20022;-76
2021/10/02 11:56:19;;;;;;;9.82;5.10;;;20.40;97.70;;;;;;5013529;28;20086;-77
2021/10/02 11:58:46;;;;;;;6.65;5.35;;;20.50;98.80;;;;;;5013642;28;20380;-77
2021/10/02 12:01:25;;;;;;;6.70;5.05;;;20.50;98.10;;;;;;5013744;28;20025;-77
2021/10/02 12:03:59;;;;;;;9.25;5.00;;;20.50;96.80;;;;;;5012233;28;20037;-77
2021/10/02 12:06:25;;;;;;;7.93;5.22;;;20.40;97.00;;;;;;5028724;28;20030;-76
2021/10/02 12:08:51;;;;;;;8.93;5.53;;;20.40;97.90;;;;;;5012230;28;20030;-76
2021/10/02 12:11:17;;;;;;;8.30;5.03;;;20.40;97.00;;;;;;5013432;28;20514;-76
2021/10/02 12:13:50;;;;;;;9.52;4.57;;;20.40;97.00;;;;;;5013379;28;20030;-76
2021/10/02 12:16:18;;;;;;;9.02;5.32;;;20.50;97.50;;;;;;5013225;28;20504;-76
2021/10/02 12:18:55;;;;;;;10.30;6.28;;;20.50;96.60;;;;;;5013465;28;20072;-76
2021/10/02 12:21:26;;;;;;;8.38;5.60;;;20.50;96.50;;;;;;5012839;28;20069;-76
2021/10/02 12:24:21;;;;;;;12.43;5.07;;;20.50;96.70;;;;;;5012384;28;20045;-76
2021/10/02 12:26:47;;;;;;;10.95;5.32;;;20.50;97.60;;;;;;5003397;28;20296;-76
2021/10/02 12:29:16;;;;;;;9.10;5.10;;;20.60;98.00;;;;;;5012998;28;20057;-77
2021/10/02 12:32:04;;;;;;;6.72;4.97;;;20.60;98.00;;;;;;5011759;28;20032;-76
2021/10/02 12:34:42;;;;;;;5.53;4.53;;;20.60;98.50;;;;;;5012985;28;20091;-76
2021/10/02 12:37:18;;;;;;;7.28;4.65;;;20.70;98.10;;;;;;5013128;28;20495;-76
2021/10/02 12:39:52;;;;;;;10.75;4.85;;;20.80;97.50;;;;;;5013238;28;20030;-76
2021/10/02 12:42:36;;;;;;;9.38;4.80;;;20.80;96.90;;;;;;5012661;28;20045;-76
2021/10/02 12:45:26;;;;;;;7.95;4.80;;;20.80;97.50;;;;;;5013016;28;20054;-76
2021/10/02 12:47:54;;;;;;;9.23;4.80;;;20.90;97.40;;;;;;5026163;28;20125;-76
2021/10/02 12:50:28;;;;;;;11.13;5.78;;;20.90;97.20;;;;;;5009856;28;20061;-77
2021/10/02 12:52:57;;;;;;;7.05;4.80;;;20.90;97.30;;;;;;5011495;28;20030;-76
2021/10/02 12:55:23;;;;;;;10.70;5.80;;;20.90;97.20;;;;;;5009677;28;20103;-77
2021/10/02 12:57:50;;;;;;;7.70;5.65;;;20.90;96.90;;;;;;5021761;28;20042;-76
2021/10/02 13:00:28;;;;;;;8.63;5.93;;;21.00;97.10;;;;;;5005244;28;20062;-76
2021/10/02 13:02:56;;;;;;;8.65;5.97;;;21.00;96.90;;;;;;4999184;28;20144;-76
2021/10/02 13:05:28;;;;;;;10.63;5.47;;;20.90;95.60;;;;;;5011591;28;20037;-76
2021/10/02 13:07:56;;;;;;;11.73;6.68;;;20.90;95.80;;;;;;5013077;28;20028;-76
2021/10/02 13:10:34;;;;;;;9.88;5.60;;;20.90;95.70;;;;;;4997759;28;20058;-76
2021/10/02 13:13:01;;;;;;;10.23;5.70;;;20.90;96.70;;;;;;4996975;28;20104;-76
2021/10/02 13:15:28;;;;;;;6.50;4.53;;;20.90;96.90;;;;;;4996708;28;20085;-76
2021/10/02 13:18:14;;;;;;;8.95;5.63;;;21.00;97.20;;;;;;5011757;28;20085;-76
2021/10/02 13:20:40;;;;;;;14.40;6.32;;;21.00;97.20;;;;;;4996624;28;20108;-76
2021/10/02 13:23:17;;;;;;;7.55;5.82;;;21.00;97.10;;;;;;5012039;28;20034;-76
2021/10/02 13:25:56;;;;;;;8.73;5.57;;;21.00;97.30;;;;;;4996802;28;20088;-76
2021/10/02 13:28:28;;;;;;;8.20;4.88;;;21.00;96.70;;;;;;4996912;28;20034;-76
2021/10/02 13:30:56;;;;;;;6.57;5.07;;;21.00;96.50;;;;;;5011612;28;20081;-76
2021/10/02 13:33:23;;;;;;;8.63;5.47;;;21.00;96.90;;;;;;5002687;28;20022;-76
2021/10/02 13:35:55;;;;;;;10.27;4.63;;;21.00;96.90;;;;;;5015789;28;20026;-76
2021/10/02 13:38:41;;;;;;;13.15;6.20;;;21.00;97.00;;;;;;5015433;28;20048;-76
2021/10/02 13:41:11;;;;;;;8.38;4.68;;;21.00;96.40;;;;;;5011904;28;20072;-76
2021/10/02 13:43:54;;;;;;;7.35;4.95;;;21.10;97.30;;;;;;5011289;28;20034;-73
2021/10/02 13:46:32;;;;;;;6.50;4.75;;;21.10;97.20;;;;;;5011015;28;20111;-74
2021/10/02 13:48:59;;;;;;;10.32;5.78;;;21.20;96.70;;;;;;5011066;28;20105;-74
2021/10/02 13:51:26;;;;;;;9.27;5.43;;;21.30;95.30;;;;;;5010477;28;20026;-73